Centertown, Missouri
Current Conditions -  °F | °C
As of 10:16 AM on Friday 19 Dec 2014 (Local Time) from KJEF Reporting Station
Haze Haze  
Wind Chill: 31°   Ceiling: 1000
Heat Index: 35°   Visibility: 5mi
Dew Point: 31°   Wind: 5mph
Humidity: 85%   Direction: 110°ESE
Pressure: 30.3"   Gusts: NA
Location:  38.62°N, 92.41°W
Report Text: KJEF 191616Z 11004KT 5SM BR BKN010 OVC017 02/M01 A3030 RMK AO2 T00171006
Loading
Personal Weather Stations






























Interactive Weather Map New forecast layout! Learn more

10-Day Weather Forecast

Advertisements
Track Severe Weather on mobile